Time;durP1;ratioP1;P1;durP2;ratioP2;P2;SDS_P1;SDS_P2;PMS_P1;PMS_P2;Temp;Humidity;BMP_temperature;BMP_pressure;BME280_temperature;BME280_humidity;BME280_pressure;Samples;Min_cycle;Max_cycle;Signal;HPM_P1;HPM_P2
2022/07/20 00:02:13;;;;;;;9.23;5.63;;;;;;;17.77;100.00;99702.28;5090524;28;20048;-52
2022/07/20 00:04:39;;;;;;;8.90;5.75;;;;;;;17.69;100.00;99689.56;5090833;28;20468;-51
2022/07/20 00:07:05;;;;;;;9.05;5.68;;;;;;;17.72;100.00;99686.00;5090525;28;20463;-55
2022/07/20 00:12:16;;;;;;;;;;;;;;;17.85;100.00;99692.72;5091134;28;20051;-53
2022/07/20 00:14:42;;;;;;;8.68;5.80;;;;;;;17.72;100.00;99693.53;5090674;28;19924;-52
2022/07/20 00:17:09;;;;;;;10.13;5.85;;;;;;;18.00;100.00;99696.25;5090757;28;20422;-51
2022/07/20 00:19:36;;;;;;;9.15;5.25;;;;;;;17.71;100.00;99681.66;5090581;28;20659;-55
2022/07/20 00:22:02;;;;;;;8.43;5.40;;;;;;;18.03;100.00;99689.13;5090472;28;20052;-55
2022/07/20 00:24:28;;;;;;;8.30;5.57;;;;;;;18.17;100.00;99702.13;5090281;28;20051;-56
2022/07/20 00:26:54;;;;;;;9.40;7.78;;;;;;;18.35;100.00;99709.16;5090339;28;20060;-52
2022/07/20 00:29:20;;;;;;;8.75;5.15;;;;;;;18.01;100.00;99706.16;5090296;28;20055;-53
2022/07/20 00:31:47;;;;;;;8.32;6.13;;;;;;;18.36;100.00;99693.31;5090495;28;20048;-56
2022/07/20 00:34:13;;;;;;;14.45;6.95;;;;;;;18.05;100.00;99684.72;5090360;28;20054;-55
2022/07/20 00:36:40;;;;;;;14.90;6.65;;;;;;;18.32;100.00;99685.00;5090197;28;20069;-52
2022/07/20 00:39:06;;;;;;;9.07;7.88;;;;;;;18.34;100.00;99682.59;5090125;28;20059;-53
2022/07/20 00:41:33;;;;;;;9.50;8.50;;;;;;;18.48;100.00;99686.50;5089979;28;20507;-51
2022/07/20 00:44:01;;;;;;;10.02;7.68;;;;;;;18.30;100.00;99681.06;5090065;28;20048;-52
2022/07/20 00:46:29;;;;;;;7.95;5.88;;;;;;;18.42;100.00;99688.13;5089992;28;20499;-54
2022/07/20 00:48:55;;;;;;;10.25;6.00;;;;;;;18.46;100.00;99694.44;5089809;28;20140;-51
2022/07/20 00:51:22;;;;;;;11.80;8.02;;;;;;;18.49;100.00;99683.34;5089857;28;20048;-52
2022/07/20 00:53:51;;;;;;;9.20;5.55;;;;;;;18.41;100.00;99681.78;5090268;28;20051;-56
2022/07/20 00:56:17;;;;;;;9.52;7.63;;;;;;;18.24;100.00;99683.47;5089833;28;20058;-52
2022/07/20 00:58:44;;;;;;;10.63;7.97;;;;;;;18.31;100.00;99663.19;5090007;28;20060;-52
2022/07/20 01:01:10;;;;;;;9.57;5.28;;;;;;;18.41;100.00;99658.78;5089889;28;20059;-54
2022/07/20 01:03:37;;;;;;;10.35;6.25;;;;;;;18.46;100.00;99675.00;5089817;28;20056;-55
2022/07/20 01:06:04;;;;;;;11.63;6.13;;;;;;;18.07;100.00;99662.16;5089743;28;20570;-55
2022/07/20 01:08:31;;;;;;;11.80;8.73;;;;;;;18.40;100.00;99660.78;5089606;28;20051;-56
2022/07/20 01:10:59;;;;;;;10.00;9.00;;;;;;;18.31;100.00;99661.22;5089753;28;20499;-52
2022/07/20 01:13:25;;;;;;;8.95;6.32;;;;;;;18.45;100.00;99665.88;5089591;28;20071;-51
2022/07/20 01:15:51;;;;;;;10.32;7.65;;;;;;;18.38;100.00;99670.69;5089603;28;20063;-53
2022/07/20 01:18:18;;;;;;;9.82;8.45;;;;;;;18.30;100.00;99673.53;5089893;28;20044;-55
2022/07/20 01:20:46;;;;;;;8.43;5.75;;;;;;;18.43;100.00;99673.06;5089536;28;20097;-55
2022/07/20 01:23:14;;;;;;;12.00;6.20;;;;;;;18.54;100.00;99679.31;5089490;28;20048;-52
2022/07/20 01:25:40;;;;;;;9.20;6.70;;;;;;;18.51;100.00;99682.91;5089576;28;20087;-52
2022/07/20 01:28:07;;;;;;;10.35;6.50;;;;;;;18.53;100.00;99697.19;5089430;28;20052;-55
2022/07/20 01:30:34;;;;;;;12.60;9.75;;;;;;;18.47;100.00;99682.94;5089620;28;20074;-57
2022/07/20 01:33:00;;;;;;;13.98;8.13;;;;;;;18.41;100.00;99672.66;5089469;28;20083;-55
2022/07/20 01:35:26;;;;;;;10.73;6.43;;;;;;;18.31;100.00;99658.44;5089836;28;20044;-55
2022/07/20 01:37:53;;;;;;;11.77;6.35;;;;;;;18.33;100.00;99652.50;5092904;28;20101;-53
2022/07/20 01:40:20;;;;;;;8.30;6.20;;;;;;;18.29;100.00;99652.53;5092879;28;20427;-54
2022/07/20 01:42:46;;;;;;;11.70;6.65;;;;;;;18.11;100.00;99652.59;5092771;28;20139;-55
2022/07/20 01:45:13;;;;;;;13.88;6.85;;;;;;;18.17;100.00;99636.31;5092778;28;20131;-52
2022/07/20 01:47:39;;;;;;;13.57;7.20;;;;;;;18.02;100.00;99618.16;5093036;28;20100;-52
2022/07/20 01:50:06;;;;;;;12.32;9.85;;;;;;;17.98;100.00;99614.63;5092818;28;20048;-53
2022/07/20 01:52:33;;;;;;;9.30;6.18;;;;;;;18.01;100.00;99606.28;5092729;28;20418;-55
2022/07/20 01:54:59;;;;;;;13.20;9.40;;;;;;;17.87;100.00;99593.28;5092848;28;20048;-53
2022/07/20 01:57:26;;;;;;;11.30;9.73;;;;;;;17.87;100.00;99586.94;5092703;28;20070;-54
2022/07/20 01:59:53;;;;;;;11.50;6.68;;;;;;;17.92;100.00;99578.19;5092522;28;20052;-53
2022/07/20 02:02:19;;;;;;;13.48;6.85;;;;;;;17.90;100.00;99574.25;5092575;28;20047;-52
2022/07/20 02:04:45;;;;;;;10.43;7.20;;;;;;;17.84;100.00;99566.34;5092566;28;20083;-55
2022/07/20 02:07:11;;;;;;;10.65;6.47;;;;;;;17.86;100.00;99554.88;5092493;28;20048;-56
2022/07/20 02:09:38;;;;;;;12.25;8.90;;;;;;;17.80;100.00;99546.16;5092436;28;20079;-55
2022/07/20 02:12:05;;;;;;;12.40;6.97;;;;;;;17.77;100.00;99530.34;5092312;28;20060;-54
2022/07/20 02:14:32;;;;;;;12.00;7.45;;;;;;;17.76;100.00;99537.09;5092200;28;20048;-53
2022/07/20 02:16:58;;;;;;;10.73;6.55;;;;;;;17.72;100.00;99518.84;5092453;28;20052;-56
2022/07/20 02:19:24;;;;;;;10.93;6.80;;;;;;;17.55;100.00;99503.88;5092443;28;20155;-56
2022/07/20 02:21:50;;;;;;;11.00;6.75;;;;;;;17.62;100.00;99490.75;5092192;28;20081;-52
2022/07/20 02:24:17;;;;;;;15.13;7.45;;;;;;;17.67;100.00;99486.78;5092294;28;20083;-52
2022/07/20 02:26:43;;;;;;;12.60;6.85;;;;;;;17.64;100.00;99493.94;5092127;28;20054;-53
2022/07/20 02:29:09;;;;;;;13.63;7.25;;;;;;;17.68;100.00;99485.59;5092097;28;20050;-52
2022/07/20 02:31:36;;;;;;;17.80;7.68;;;;;;;17.69;100.00;99498.25;5092078;28;20052;-53
2022/07/20 02:34:02;;;;;;;10.65;6.60;;;;;;;17.69;100.00;99494.69;5092118;28;20052;-51
2022/07/20 02:36:28;;;;;;;10.65;9.52;;;;;;;17.72;100.00;99500.22;5092160;28;20047;-54
2022/07/20 02:38:55;;;;;;;14.20;7.40;;;;;;;17.73;100.00;99499.03;5092058;28;20135;-52
2022/07/20 02:41:21;;;;;;;8.27;6.50;;;;;;;17.53;100.00;99495.19;5091950;28;20048;-54
2022/07/20 02:43:47;;;;;;;9.68;6.43;;;;;;;17.75;100.00;99480.00;5092100;28;20065;-52
2022/07/20 02:46:14;;;;;;;9.57;6.75;;;;;;;17.93;100.00;99498.56;5092241;28;20073;-53
2022/07/20 02:48:41;;;;;;;11.35;6.68;;;;;;;18.04;100.00;99516.69;5090591;28;20059;-52
2022/07/20 02:51:07;;;;;;;9.23;6.72;;;;;;;18.30;100.00;99545.06;5091875;28;20142;-53
2022/07/20 02:53:33;;;;;;;11.93;7.53;;;;;;;18.40;100.00;99569.19;5091759;28;20058;-56
2022/07/20 02:55:59;;;;;;;11.30;6.65;;;;;;;18.49;100.00;99580.63;5091641;28;20080;-53
2022/07/20 02:58:26;;;;;;;9.73;6.53;;;;;;;18.55;100.00;99603.94;5091690;28;20418;-54
2022/07/20 03:00:52;;;;;;;11.70;9.73;;;;;;;18.86;100.00;99617.22;5091602;28;20048;-52
2022/07/20 03:03:18;;;;;;;11.38;6.40;;;;;;;19.19;100.00;99629.63;5091651;28;20154;-53
2022/07/20 03:05:45;;;;;;;10.90;6.90;;;;;;;19.33;100.00;99657.31;5091532;28;20056;-56
2022/07/20 03:08:11;;;;;;;14.60;7.28;;;;;;;19.55;100.00;99655.06;5091575;28;20108;-54
2022/07/20 03:10:38;;;;;;;10.52;6.82;;;;;;;19.89;100.00;99648.75;5091279;28;20086;-53
2022/07/20 03:13:04;;;;;;;9.50;6.28;;;;;;;19.72;100.00;99634.63;5091689;28;20052;-57
2022/07/20 03:15:30;;;;;;;10.60;7.22;;;;;;;20.10;100.00;99615.09;5091590;28;20048;-57
2022/07/20 03:17:56;;;;;;;12.57;7.35;;;;;;;20.37;100.00;99586.47;5091539;28;20460;-52
2022/07/20 03:20:24;;;;;;;10.98;6.68;;;;;;;20.26;100.00;99558.00;5091475;28;20048;-52
2022/07/20 03:22:51;;;;;;;14.20;6.80;;;;;;;19.93;100.00;99577.16;5091485;28;20056;-52
2022/07/20 03:25:18;;;;;;;12.02;7.28;;;;;;;19.67;100.00;99617.63;5091190;28;20052;-55
2022/07/20 03:27:44;;;;;;;11.80;9.32;;;;;;;19.68;100.00;99621.97;5091395;28;20048;-57
2022/07/20 03:30:11;;;;;;;10.82;7.30;;;;;;;19.36;100.00;99636.19;5091168;28;20056;-55
2022/07/20 03:32:38;;;;;;;10.93;7.28;;;;;;;19.14;100.00;99636.44;5091018;28;20058;-55
2022/07/20 03:35:05;;;;;;;11.15;7.43;;;;;;;19.06;100.00;99659.94;5091054;28;20056;-55
2022/07/20 03:37:31;;;;;;;12.95;7.68;;;;;;;19.11;100.00;99661.47;5090996;28;20526;-54
2022/07/20 03:39:58;;;;;;;11.80;6.75;;;;;;;19.11;100.00;99678.94;5090869;28;20054;-57
2022/07/20 03:42:24;;;;;;;10.65;7.20;;;;;;;19.26;100.00;99674.84;5090835;28;20108;-55
2022/07/20 03:44:51;;;;;;;9.85;6.60;;;;;;;19.69;100.00;99668.06;5090893;28;20147;-55
2022/07/20 03:47:17;;;;;;;10.50;9.40;;;;;;;19.57;100.00;99671.34;5091006;28;20056;-56
2022/07/20 03:49:43;;;;;;;13.05;7.15;;;;;;;19.55;100.00;99654.28;5090883;28;20048;-54
2022/07/20 03:52:09;;;;;;;10.32;9.32;;;;;;;20.04;100.00;99652.16;5090837;28;20052;-54
2022/07/20 03:54:36;;;;;;;13.13;9.60;;;;;;;20.60;100.00;99572.59;5090811;28;20143;-53
2022/07/20 03:57:03;;;;;;;13.63;7.25;;;;;;;21.10;100.00;99463.00;5090725;28;20051;-52
2022/07/20 03:59:29;;;;;;;9.80;6.50;;;;;;;21.60;100.00;99308.56;5090455;28;20113;-56
2022/07/20 04:01:55;;;;;;;11.35;8.68;;;;;;;21.69;100.00;99209.47;5090520;28;20055;-56
2022/07/20 04:04:21;;;;;;;10.93;8.70;;;;;;;22.29;100.00;99042.28;5090697;28;20044;-56
2022/07/20 04:06:48;;;;;;;8.43;6.20;;;;;;;21.63;100.00;99077.38;5090561;28;20190;-53
2022/07/20 04:09:14;;;;;;;11.55;8.77;;;;;;;22.30;100.00;98991.59;5090803;28;20560;-56
2022/07/20 04:11:40;;;;;;;9.50;6.30;;;;;;;22.63;100.00;98859.97;5090420;28;20048;-53
2022/07/20 04:14:07;;;;;;;12.48;6.85;;;;;;;22.73;100.00;98821.72;5090828;28;20044;-54
2022/07/20 04:16:33;;;;;;;9.35;8.38;;;;;;;22.50;100.00;98801.38;5090649;28;20152;-55
2022/07/20 04:18:59;;;;;;;13.48;8.80;;;;;;;22.93;100.00;98715.19;5090925;28;20337;-54
2022/07/20 04:21:25;;;;;;;11.45;7.03;;;;;;;22.78;100.00;98622.69;5090609;28;20437;-54
2022/07/20 04:23:52;;;;;;;12.75;8.40;;;;;;;23.18;100.00;98610.72;5090539;28;20056;-53
2022/07/20 04:26:18;;;;;;;16.63;8.40;;;;;;;23.18;100.00;98524.03;5090195;28;20146;-55
2022/07/20 04:28:44;;;;;;;9.95;8.20;;;;;;;23.35;100.00;98514.06;5090289;28;20594;-55
2022/07/20 04:31:11;;;;;;;8.82;7.70;;;;;;;23.08;100.00;98578.41;5090249;28;20063;-55
2022/07/20 04:33:37;;;;;;;10.50;8.20;;;;;;;23.70;100.00;98474.59;5090189;28;20056;-55
2022/07/20 04:36:04;;;;;;;10.45;8.48;;;;;;;23.99;100.00;98386.44;5090458;28;20132;-53
2022/07/20 04:38:31;;;;;;;12.95;7.65;;;;;;;24.47;100.00;98325.63;5090080;28;20056;-56
2022/07/20 04:40:57;;;;;;;8.63;6.15;;;;;;;23.71;100.00;98358.59;5090137;28;20048;-57
2022/07/20 04:43:24;;;;;;;10.48;7.88;;;;;;;24.28;100.00;98319.34;5090082;28;20052;-56
2022/07/20 04:45:50;;;;;;;11.35;8.10;;;;;;;24.68;100.00;98287.28;5090164;28;20139;-56
2022/07/20 04:48:17;;;;;;;10.27;7.95;;;;;;;24.64;100.00;98244.66;5090059;28;20495;-55
2022/07/20 04:50:44;;;;;;;10.48;7.47;;;;;;;24.30;100.00;98226.47;5089946;28;20093;-57
2022/07/20 04:53:10;;;;;;;10.05;7.07;;;;;;;24.20;100.00;98264.97;5090043;28;20052;-57
2022/07/20 04:55:36;;;;;;;8.30;7.45;;;;;;;24.76;100.00;98235.22;5089854;28;20051;-55
2022/07/20 04:58:02;;;;;;;11.50;6.75;;;;;;;25.20;100.00;98211.97;5089819;28;20139;-56
2022/07/20 05:00:29;;;;;;;7.93;7.00;;;;;;;25.29;100.00;98183.00;5089831;28;20047;-54
2022/07/20 05:02:55;;;;;;;8.57;7.20;;;;;;;25.33;100.00;98173.13;5089967;28;20135;-57
2022/07/20 05:05:22;;;;;;;11.68;7.63;;;;;;;25.98;100.00;98152.50;5089772;28;20526;-57
2022/07/20 05:07:48;;;;;;;7.50;6.80;;;;;;;25.71;100.00;98157.28;5090029;28;20052;-54
2022/07/20 05:10:14;;;;;;;7.82;7.03;;;;;;;26.43;100.00;98156.53;5089521;28;20592;-56
2022/07/20 05:12:40;;;;;;;9.40;6.53;;;;;;;25.92;100.00;98143.25;5093327;28;20052;-56
2022/07/20 05:15:08;;;;;;;8.18;6.20;;;;;;;25.31;100.00;98146.81;5093327;28;20131;-56
2022/07/20 05:17:34;;;;;;;10.60;6.57;;;;;;;25.07;100.00;98150.56;5093257;28;20118;-55
2022/07/20 05:20:00;;;;;;;8.32;6.10;;;;;;;25.46;100.00;98133.53;5093248;28;20625;-56
2022/07/20 05:22:27;;;;;;;14.20;6.22;;;;;;;24.77;100.00;98127.44;5093087;28;20048;-55
2022/07/20 05:24:53;;;;;;;8.95;6.72;;;;;;;24.58;100.00;98149.28;5093460;28;20104;-55
2022/07/20 05:27:20;;;;;;;7.22;5.82;;;;;;;25.00;100.00;98148.16;5093108;28;20047;-55
2022/07/20 05:29:46;;;;;;;8.02;6.00;;;;;;;25.70;100.00;98122.06;5093000;28;20143;-56
2022/07/20 05:32:12;;;;;;;8.35;5.68;;;;;;;26.07;100.00;98127.06;5092706;28;20056;-56
2022/07/20 05:34:38;;;;;;;6.25;5.65;;;;;;;25.68;100.00;98121.78;5093279;28;20047;-55
2022/07/20 05:37:04;;;;;;;6.65;5.65;;;;;;;26.45;100.00;98122.28;5092775;28;20052;-55
2022/07/20 05:39:32;;;;;;;8.55;5.45;;;;;;;26.89;100.00;98135.97;5092951;28;20048;-56
2022/07/20 05:41:58;;;;;;;8.73;5.95;;;;;;;27.30;100.00;98157.44;5092569;28;20058;-55
2022/07/20 05:44:24;;;;;;;6.53;5.07;;;;;;;27.87;100.00;98173.31;5092929;28;20062;-55
2022/07/20 05:46:50;;;;;;;6.88;6.00;;;;;;;27.95;100.00;98187.69;5093091;28;20485;-56
2022/07/20 05:49:16;;;;;;;6.25;5.30;;;;;;;27.13;100.00;98189.06;5092940;28;20048;-54
2022/07/20 05:51:43;;;;;;;7.03;4.70;;;;;;;27.18;100.00;98184.72;5092858;28;20100;-55
2022/07/20 05:54:09;;;;;;;7.07;4.65;;;;;;;26.44;100.00;98165.72;5092726;28;20058;-54
2022/07/20 05:56:36;;;;;;;10.27;5.00;;;;;;;25.96;100.00;98141.00;5092550;28;20048;-57
2022/07/20 05:59:02;;;;;;;9.00;5.32;;;;;;;25.82;100.00;98137.00;5092476;28;20054;-57
2022/07/20 06:01:28;;;;;;;9.93;4.90;;;;;;;25.81;100.00;98136.25;5093022;28;20058;-56
2022/07/20 06:03:55;;;;;;;6.70;4.82;;;;;;;26.38;100.00;98137.56;5092229;28;20056;-55
2022/07/20 06:06:21;;;;;;;5.72;4.72;;;;;;;26.72;100.00;98149.09;5092209;28;20173;-57
2022/07/20 06:08:47;;;;;;;8.80;5.10;;;;;;;26.88;100.00;98153.31;5092321;28;20143;-54
2022/07/20 06:11:13;;;;;;;10.40;4.75;;;;;;;26.01;100.00;98190.81;5092625;28;20052;-55
2022/07/20 06:13:40;;;;;;;6.60;4.97;;;;;;;24.87;100.00;98142.88;5092036;28;20434;-55
2022/07/20 06:16:07;;;;;;;8.05;5.40;;;;;;;25.38;100.00;98140.03;5092201;28;20048;-55
2022/07/20 06:18:33;;;;;;;11.82;4.97;;;;;;;25.00;100.00;98148.16;5092441;28;20052;-56
2022/07/20 06:20:59;;;;;;;7.60;4.75;;;;;;;24.37;100.00;98150.44;5092137;28;20051;-56
2022/07/20 06:23:26;;;;;;;6.93;5.30;;;;;;;24.10;100.00;98143.88;5091781;28;20052;-56
2022/07/20 06:25:52;;;;;;;8.32;4.90;;;;;;;24.55;100.00;98127.09;5092134;28;20052;-57
2022/07/20 06:28:18;;;;;;;8.98;4.80;;;;;;;24.95;100.00;98146.03;5092458;28;20048;-56
2022/07/20 06:30:45;;;;;;;7.47;4.40;;;;;;;25.27;100.00;98143.47;5091765;28;20472;-55
2022/07/20 06:33:11;;;;;;;6.53;4.30;;;;;;;24.76;100.00;98148.31;5092261;28;20139;-54
2022/07/20 06:35:37;;;;;;;6.53;4.20;;;;;;;24.44;100.00;98136.09;5091954;28;20048;-55
2022/07/20 06:38:04;;;;;;;5.15;4.18;;;;;;;23.42;100.00;98113.78;5092051;28;20059;-56
2022/07/20 06:40:30;;;;;;;7.38;4.70;;;;;;;23.97;100.00;98123.03;5091743;28;20200;-55
2022/07/20 06:42:56;;;;;;;5.05;4.55;;;;;;;24.24;100.00;98107.97;5091750;28;20056;-56
2022/07/20 06:45:23;;;;;;;7.70;4.07;;;;;;;24.12;100.00;98110.56;5091854;28;20396;-55
2022/07/20 06:47:50;;;;;;;4.65;4.20;;;;;;;23.74;100.00;98107.84;5091709;28;20044;-56
2022/07/20 06:50:16;;;;;;;8.70;4.82;;;;;;;23.86;100.00;98112.41;5091589;28;20044;-56
2022/07/20 06:52:42;;;;;;;8.55;4.40;;;;;;;24.40;100.00;98110.28;5091707;28;20052;-55
2022/07/20 06:55:09;;;;;;;6.63;4.47;;;;;;;24.10;100.00;98115.13;5091992;28;20058;-54
2022/07/20 06:57:35;;;;;;;6.57;4.35;;;;;;;23.54;100.00;98112.00;5091349;28;20139;-56
2022/07/20 07:00:02;;;;;;;7.20;4.07;;;;;;;23.09;100.00;98108.28;5091944;28;20048;-54
2022/07/20 07:02:28;;;;;;;7.40;4.38;;;;;;;23.15;100.00;98113.97;5091203;28;20048;-55
2022/07/20 07:04:55;;;;;;;6.25;4.35;;;;;;;24.40;100.00;98105.47;5091563;28;20051;-56
2022/07/20 07:07:21;;;;;;;7.32;4.50;;;;;;;25.17;100.00;98137.22;5091565;28;20051;-54
2022/07/20 07:09:48;;;;;;;7.25;4.30;;;;;;;25.47;100.00;98163.09;5091661;28;20056;-53
2022/07/20 07:12:14;;;;;;;6.35;3.83;;;;;;;24.46;100.00;98149.59;5091718;28;20054;-57
2022/07/20 07:14:40;;;;;;;7.25;3.65;;;;;;;25.07;100.00;98189.06;5091851;28;20159;-56
2022/07/20 07:17:07;;;;;;;6.65;3.75;;;;;;;24.88;100.00;98177.28;5091130;28;20048;-54
2022/07/20 07:19:33;;;;;;;11.65;4.00;;;;;;;24.35;100.00;98141.75;5091192;28;20048;-55
2022/07/20 07:22:00;;;;;;;8.73;4.00;;;;;;;23.77;100.00;98130.03;5091098;28;20058;-53
2022/07/20 07:24:26;;;;;;;6.93;4.25;;;;;;;23.66;100.00;98116.56;5091074;28;20056;-55
2022/07/20 07:26:52;;;;;;;5.47;4.30;;;;;;;23.41;100.00;98106.66;5091491;28;20048;-53
2022/07/20 07:29:20;;;;;;;6.15;4.45;;;;;;;23.14;100.00;98115.25;5090896;28;20137;-52
2022/07/20 07:31:46;;;;;;;8.25;4.45;;;;;;;22.88;100.00;98126.06;5091276;28;20044;-55
2022/07/20 07:34:12;;;;;;;11.82;4.95;;;;;;;22.48;100.00;98150.28;5090343;28;20052;-54
2022/07/20 07:36:38;;;;;;;9.20;3.90;;;;;;;21.94;100.00;98190.97;5091138;28;20139;-55
2022/07/20 07:39:05;;;;;;;8.07;4.32;;;;;;;22.68;100.00;98157.34;5091023;28;20499;-55
2022/07/20 07:41:32;;;;;;;5.57;3.60;;;;;;;23.10;100.00;98128.63;5090820;28;20044;-54
2022/07/20 07:43:58;;;;;;;5.40;4.32;;;;;;;23.15;100.00;98113.97;5090791;28;20101;-57
2022/07/20 07:46:24;;;;;;;8.18;5.15;;;;;;;22.88;100.00;98112.09;5090931;28;20048;-54
2022/07/20 07:48:51;;;;;;;5.65;4.13;;;;;;;22.65;100.00;98124.78;5090733;28;20498;-56
2022/07/20 07:51:17;;;;;;;5.38;4.25;;;;;;;22.84;100.00;98139.44;5090650;28;20055;-53
2022/07/20 07:53:43;;;;;;;10.98;4.78;;;;;;;23.75;100.00;98101.75;5090660;28;20054;-56
2022/07/20 07:56:11;;;;;;;10.68;4.07;;;;;;;24.12;100.00;98121.75;5090473;28;20047;-55
2022/07/20 07:58:37;;;;;;;9.25;3.72;;;;;;;24.52;100.00;98181.28;5090965;28;20044;-55
2022/07/20 08:01:04;;;;;;;5.40;3.63;;;;;;;24.21;100.00;98187.34;5090443;28;20147;-56
2022/07/20 08:03:30;;;;;;;5.78;3.42;;;;;;;24.07;100.00;98195.22;5090426;28;20066;-53
2022/07/20 08:05:57;;;;;;;7.65;3.72;;;;;;;24.32;100.00;98185.50;5090458;28;20056;-55
2022/07/20 08:08:23;;;;;;;4.43;3.95;;;;;;;23.98;100.00;98155.34;5090329;28;20049;-56
2022/07/20 08:10:49;;;;;;;5.80;4.35;;;;;;;23.51;100.00;98143.72;5090358;28;20048;-56
2022/07/20 08:13:16;;;;;;;8.07;3.95;;;;;;;23.22;100.00;98136.75;5090278;28;20055;-56
2022/07/20 08:15:42;;;;;;;6.35;4.10;;;;;;;22.79;100.00;98116.50;5090438;28;20062;-54
2022/07/20 08:18:09;;;;;;;4.72;3.78;;;;;;;23.58;100.00;98131.41;5090252;28;20048;-55
2022/07/20 08:20:35;;;;;;;16.30;4.20;;;;;;;24.79;100.00;98214.63;5090464;28;20565;-56
2022/07/20 08:23:02;;;;;;;4.90;3.55;;;;;;;25.36;100.00;98348.13;5090129;28;20048;-56
2022/07/20 08:25:28;;;;;;;5.32;3.70;;;;;;;25.51;100.00;98379.75;5090654;28;20096;-57
2022/07/20 08:27:55;;;;;;;4.82;3.45;;;;;;;26.54;100.00;98438.97;5090162;28;20139;-56
2022/07/20 08:30:22;;;;;;;5.18;2.80;;;;;;;26.43;100.00;98535.13;5090369;28;20058;-56
2022/07/20 08:32:48;;;;;;;9.15;2.75;;;;;;;26.99;100.00;98530.28;5089744;28;20603;-52
2022/07/20 08:35:14;;;;;;;8.90;4.18;;;;;;;26.46;100.00;98528.53;5090083;28;20056;-54
2022/07/20 08:37:41;;;;;;;4.72;2.80;;;;;;;26.70;100.00;98537.59;5090149;28;20070;-55
2022/07/20 08:40:08;;;;;;;3.90;2.42;;;;;;;26.86;100.00;98491.28;5090102;28;20542;-56
2022/07/20 08:42:34;;;;;;;5.10;3.00;;;;;;;26.45;100.00;98437.81;5089876;28;20060;-56
2022/07/20 08:45:01;;;;;;;3.20;2.90;;;;;;;25.77;100.00;98422.00;5089905;28;20058;-56
2022/07/20 08:47:30;;;;;;;6.72;2.72;;;;;;;24.47;100.00;98434.13;5090002;28;20058;-56
2022/07/20 08:49:57;;;;;;;6.22;2.97;;;;;;;24.03;100.00;98381.47;5089934;28;20044;-55
2022/07/20 08:52:23;;;;;;;4.47;3.15;;;;;;;23.51;100.00;98327.56;5090126;28;20052;-55
2022/07/20 08:54:49;;;;;;;4.45;2.95;;;;;;;24.21;100.00;98383.38;5089847;28;20148;-52
2022/07/20 08:57:17;;;;;;;5.07;2.83;;;;;;;24.22;100.00;98430.47;5090089;28;20085;-54
2022/07/20 08:59:43;;;;;;;4.28;2.90;;;;;;;24.11;100.00;98449.84;5089717;28;20143;-56
2022/07/20 09:02:10;;;;;;;5.15;2.85;;;;;;;23.91;100.00;98453.19;5089460;28;20048;-53
2022/07/20 09:04:50;;;;;;;6.35;2.60;;;;;;;23.11;100.00;98452.44;5089855;28;20052;-55
2022/07/20 09:07:17;;;;;;;4.38;2.60;;;;;;;22.92;100.00;98414.53;5089767;28;20126;-56
2022/07/20 09:09:43;;;;;;;9.40;2.53;;;;;;;23.46;100.00;98432.50;5089824;28;20056;-55
2022/07/20 09:12:10;;;;;;;5.30;2.80;;;;;;;24.47;100.00;98462.91;5089565;28;20108;-56
2022/07/20 09:14:40;;;;;;;3.70;2.50;;;;;;;25.31;100.00;98497.50;5089613;28;20056;-57
2022/07/20 09:17:17;;;;;;;3.35;2.50;;;;;;;25.15;100.00;98551.22;5089578;28;20052;-55
2022/07/20 09:19:59;;;;;;;4.80;1.98;;;;;;;25.71;100.00;98614.06;5089699;28;20476;-55
2022/07/20 09:22:31;;;;;;;6.68;1.70;;;;;;;25.38;100.00;98636.63;5089923;28;20764;-56
2022/07/20 09:25:09;;;;;;;10.25;2.20;;;;;;;25.50;100.00;98619.53;5089480;28;20139;-56
2022/07/20 09:27:36;;;;;;;4.90;1.88;;;;;;;25.66;100.00;98629.56;5089458;28;20044;-53
2022/07/20 09:30:05;;;;;;;4.43;2.13;;;;;;;26.02;100.00;98616.44;5089425;28;20055;-56
2022/07/20 09:32:31;;;;;;;13.55;2.03;;;;;;;25.76;100.00;98650.66;5089619;28;20105;-57
2022/07/20 09:35:01;;;;;;;4.13;1.77;;;;;;;25.77;100.00;98662.69;5089310;28;20080;-55
2022/07/20 09:37:38;;;;;;;3.85;1.55;;;;;;;25.53;100.00;98666.28;5089371;28;20052;-56
2022/07/20 09:40:06;;;;;;;3.90;1.73;;;;;;;26.11;100.00;98689.38;5089102;28;20106;-56
2022/07/20 09:42:36;;;;;;;12.35;1.80;;;;;;;26.48;100.00;98701.06;5089111;28;20058;-54
2022/07/20 09:45:18;;;;;;;2.08;1.65;;;;;;;26.64;100.00;98708.22;5089101;28;20054;-55
2022/07/20 09:48:01;;;;;;;1.67;1.35;;;;;;;26.35;100.00;98730.69;5089199;28;20048;-56
2022/07/20 09:50:30;;;;;;;4.65;1.50;;;;;;;26.90;100.00;98747.00;5089394;28;20124;-55
2022/07/20 09:52:57;;;;;;;5.18;1.55;;;;;;;26.75;100.00;98752.63;5088981;28;20478;-55
2022/07/20 09:55:24;;;;;;;5.38;1.55;;;;;;;26.97;100.00;98749.41;5089041;28;20098;-56
2022/07/20 09:57:51;;;;;;;7.03;1.40;;;;;;;26.86;100.00;98760.50;5091203;28;20055;-57
2022/07/20 10:00:18;;;;;;;6.05;1.60;;;;;;;25.88;100.00;98723.91;5092605;28;20422;-55
2022/07/20 10:02:46;;;;;;;2.05;1.33;;;;;;;26.16;100.00;98705.56;5092244;28;20572;-59
2022/07/20 10:05:13;;;;;;;2.75;1.33;;;;;;;26.44;100.00;98724.97;5092285;28;20526;-53
2022/07/20 10:07:42;;;;;;;7.00;1.80;;;;;;;26.24;100.00;98715.16;5092381;28;20135;-55
2022/07/20 10:10:10;;;;;;;3.65;1.30;;;;;;;25.47;100.00;98676.63;5092516;28;20044;-56
2022/07/20 10:12:36;;;;;;;3.47;1.30;;;;;;;25.41;100.00;98683.38;5092502;28;20518;-56
2022/07/20 10:15:07;;;;;;;2.30;1.20;;;;;;;25.45;100.00;98689.56;5092255;28;20058;-56
2022/07/20 10:17:36;;;;;;;2.92;1.27;;;;;;;25.09;100.00;98685.69;5092407;28;20135;-56
2022/07/20 10:20:03;;;;;;;3.17;1.30;;;;;;;24.08;100.00;98683.97;5092275;28;20079;-55
2022/07/20 10:22:29;;;;;;;4.95;1.20;;;;;;;24.49;100.00;98669.75;5092505;28;20052;-55
2022/07/20 10:25:16;;;;;;;7.43;1.42;;;;;;;24.61;100.00;98708.00;5092158;28;20048;-56
2022/07/20 10:27:42;;;;;;;4.35;1.58;;;;;;;23.90;100.00;98715.56;5092018;28;20439;-56
2022/07/20 10:30:16;;;;;;;4.65;1.10;;;;;;;23.60;100.00;98716.44;5092202;28;20099;-57
2022/07/20 10:32:52;;;;;;;2.72;1.30;;;;;;;23.17;100.00;98679.06;5091935;28;20052;-56
2022/07/20 10:35:27;;;;;;;1.70;1.05;;;;;;;22.07;100.00;98638.19;5092001;28;20526;-56
2022/07/20 10:37:56;;;;;;;11.70;1.23;;;;;;;22.33;100.00;98585.00;5091859;28;20052;-54
2022/07/20 10:40:24;;;;;;;2.83;1.00;;;;;;;22.68;100.00;98615.53;5092328;28;20048;-56
2022/07/20 10:42:53;;;;;;;2.60;1.10;;;;;;;22.63;100.00;98608.53;5091824;28;20054;-54
2022/07/20 10:45:31;;;;;;;3.90;1.25;;;;;;;22.90;100.00;98616.22;5092119;28;20048;-56
2022/07/20 10:48:03;;;;;;;5.95;1.20;;;;;;;22.90;100.00;98638.59;5091917;28;20048;-53
2022/07/20 10:50:31;;;;;;;2.10;0.90;;;;;;;23.28;100.00;98645.84;5091559;28;20059;-57
2022/07/20 10:52:59;;;;;;;1.77;0.80;;;;;;;23.31;100.00;98624.56;5092153;28;20056;-54
2022/07/20 10:55:50;;;;;;;1.00;0.80;;;;;;;23.28;100.00;98619.91;5091642;28;20077;-57
2022/07/20 10:58:19;;;;;;;5.35;1.27;;;;;;;23.88;100.00;98614.47;5091812;28;20423;-55
2022/07/20 11:00:47;;;;;;;7.82;1.50;;;;;;;23.87;100.00;98676.53;5091472;28;20078;-55
2022/07/20 11:03:15;;;;;;;4.63;0.98;;;;;;;23.46;100.00;98675.88;5091760;28;20147;-56
2022/07/20 11:05:42;;;;;;;3.50;1.40;;;;;;;22.47;100.00;98623.53;5091609;28;20346;-54
2022/07/20 11:08:09;;;;;;;3.95;0.70;;;;;;;22.64;100.00;98596.13;5090578;28;20052;-55
2022/07/20 11:10:37;;;;;;;9.73;1.27;;;;;;;22.70;100.00;98590.72;5091582;28;20843;-55
2022/07/20 11:13:06;;;;;;;3.78;0.93;;;;;;;22.76;100.00;98588.88;5091355;28;20055;-56
2022/07/20 11:15:40;;;;;;;4.40;1.10;;;;;;;22.82;100.00;98600.19;5091570;28;20052;-56
2022/07/20 11:18:08;;;;;;;5.97;1.05;;;;;;;22.98;100.00;98606.31;5091243;28;20048;-54
2022/07/20 11:20:35;;;;;;;2.67;1.15;;;;;;;22.69;100.00;98580.75;5091674;28;20048;-56
2022/07/20 11:23:02;;;;;;;12.88;0.80;;;;;;;23.00;100.00;98614.25;5091115;28;20048;-53
2022/07/20 11:25:44;;;;;;;4.45;0.90;;;;;;;23.14;100.00;98610.09;5091368;28;20078;-53